aviador You're here:

KBLU Decoded Metar

EMIGRANT GAP in CA, USA
Report Time2017-03-23 02:07:00
UTC Time2017-03-23 02:15:01
Flight Rules lifr LIFR
Wind220° at 03 kt
W.Decomp.*RWY 15: 1.8 kt HW 2.4 kt RCW
W.Rank220° ranks 16
Current wind is below 220° avg. (6.6)
Visibility2012 m
Phenomena:Mist
Clouds:Overcast 003 Hf
Ceiling300 ft
Temp00°C (ISA -5)
Dew Point00°C (100% RH)
AAT-3.1°C
QNH1016 hPa
Density Alt4,734 ft
Elevation5,279 ft
Report Wrong Elevation
Raw Report
SPECI KBLU 230207Z AUTO 22003KT 1 1/4SM BR OVC003 00/00 A3001 RMK
AO2 SNE0154 P0000 T00000000 TSNO=

Extra information for KBLU:More info

Metar Taf Metar & Taf Last 4 Metars F.Rules Stats Wind Profile Meteogram Temp Stats Airport Information Weather charts Add Link Nearby VenuesMetar ALERT Operation Metar Decoded Social comments

AIRNAV info for KBLU